createdAt,value
2023-04-22T00:00:51.919Z,12.00
2023-04-22T00:03:23.469Z,11.97
2023-04-22T00:05:52.325Z,11.96
2023-04-22T00:08:22.208Z,11.99
2023-04-22T00:10:53.314Z,12.02
2023-04-22T00:13:21.589Z,11.99
2023-04-22T00:15:49.948Z,11.94
2023-04-22T00:18:18.511Z,11.91
2023-04-22T00:20:47.154Z,11.87
2023-04-22T00:23:15.973Z,11.83
2023-04-22T00:25:44.220Z,11.77
2023-04-22T00:28:12.533Z,11.67
2023-04-22T00:30:40.984Z,11.61
2023-04-22T00:33:10.273Z,11.59
2023-04-22T00:35:40.022Z,11.56
2023-04-22T00:38:11.577Z,11.54
2023-04-22T00:40:41.751Z,11.50
2023-04-22T00:43:10.006Z,11.49
2023-04-22T00:45:38.161Z,11.46
2023-04-22T00:48:06.692Z,11.43
2023-04-22T00:50:36.294Z,11.39
2023-04-22T00:53:04.540Z,11.38
2023-04-22T00:55:34.370Z,11.29
2023-04-22T00:58:03.750Z,11.22
2023-04-22T01:00:32.183Z,11.22
2023-04-22T01:03:01.119Z,11.26
2023-04-22T01:05:32.752Z,11.25
2023-04-22T01:08:01.427Z,11.13
2023-04-22T01:10:30.355Z,11.05
2023-04-22T01:12:58.691Z,11.08
2023-04-22T01:15:29.207Z,11.12
2023-04-22T01:17:57.634Z,11.14
2023-04-22T01:20:28.329Z,11.14
2023-04-22T01:22:57.905Z,11.13
2023-04-22T01:25:26.936Z,11.02
2023-04-22T01:27:56.937Z,10.98
2023-04-22T01:30:25.250Z,10.95
2023-04-22T01:32:53.747Z,10.93
2023-04-22T01:35:22.630Z,10.90
2023-04-22T01:37:51.358Z,10.87
2023-04-22T01:40:20.257Z,10.83
2023-04-22T01:42:48.789Z,10.88
2023-04-22T01:45:18.090Z,10.85
2023-04-22T01:47:46.499Z,10.84
2023-04-22T01:50:15.252Z,10.81
2023-04-22T01:52:43.893Z,10.79
2023-04-22T01:55:12.059Z,10.76
2023-04-22T01:57:40.707Z,10.64
2023-04-22T02:00:09.620Z,10.56
2023-04-22T02:02:41.751Z,10.50
2023-04-22T02:05:10.319Z,10.45
2023-04-22T02:07:41.254Z,10.38
2023-04-22T02:10:10.053Z,10.33
2023-04-22T02:12:38.957Z,10.29
2023-04-22T02:15:08.718Z,10.25
2023-04-22T02:17:38.710Z,10.20
2023-04-22T02:20:07.742Z,10.17
2023-04-22T02:22:37.516Z,10.12
2023-04-22T02:25:06.475Z,10.08
2023-04-22T02:27:35.395Z,10.10
2023-04-22T02:30:04.347Z,10.01
2023-04-22T02:32:34.058Z,9.95
2023-04-22T02:35:03.545Z,9.94
2023-04-22T02:37:32.135Z,9.96
2023-04-22T02:40:00.849Z,9.95
2023-04-22T02:42:29.414Z,9.93
2023-04-22T02:44:59.235Z,9.91
2023-04-22T02:47:28.251Z,9.85
2023-04-22T02:49:56.703Z,9.78
2023-04-22T02:52:24.966Z,9.75
2023-04-22T02:54:53.304Z,9.74
2023-04-22T02:57:22.959Z,9.71
2023-04-22T02:59:51.369Z,9.71
2023-04-22T03:02:21.593Z,9.71
2023-04-22T03:05:18.964Z,9.69
2023-04-22T03:07:49.570Z,9.68
2023-04-22T03:10:20.215Z,9.67
2023-04-22T03:12:49.294Z,9.71
2023-04-22T03:15:21.089Z,9.79
2023-04-22T03:17:54.969Z,9.82
2023-04-22T03:20:25.491Z,9.76
2023-04-22T03:22:58.561Z,9.71
2023-04-22T03:25:29.340Z,9.74
2023-04-22T03:27:58.314Z,9.75
2023-04-22T03:30:26.910Z,9.77
2023-04-22T03:32:58.541Z,9.84
2023-04-22T03:35:50.289Z,9.94
2023-04-22T03:38:20.760Z,9.97
2023-04-22T03:40:51.470Z,9.98
2023-04-22T03:43:27.566Z,9.96
2023-04-22T03:46:04.074Z,10.01
2023-04-22T03:48:36.256Z,10.07
2023-04-22T03:51:09.749Z,10.22
2023-04-22T03:53:39.385Z,10.32
2023-04-22T03:56:13.088Z,10.41
2023-04-22T03:58:43.607Z,10.48
2023-04-22T04:01:12.122Z,10.56
2023-04-22T04:03:42.260Z,10.64
2023-04-22T04:06:14.353Z,10.75
2023-04-22T04:08:50.606Z,10.87
2023-04-22T04:11:22.567Z,10.97
2023-04-22T04:13:55.370Z,11.08
2023-04-22T04:16:36.239Z,11.17
2023-04-22T04:19:15.679Z,11.25
2023-04-22T04:21:46.951Z,11.37
2023-04-22T04:24:18.665Z,11.49
2023-04-22T04:26:54.033Z,11.63
2023-04-22T04:29:33.157Z,11.79
2023-04-22T04:32:11.218Z,11.97
2023-04-22T04:34:41.075Z,12.11
2023-04-22T04:37:13.777Z,12.23
2023-04-22T04:40:08.140Z,12.34
2023-04-22T04:42:45.843Z,12.40
2023-04-22T04:45:20.020Z,12.50
2023-04-22T04:48:04.597Z,12.59
2023-04-22T04:50:37.609Z,12.67
2023-04-22T04:53:07.760Z,12.73
2023-04-22T04:55:48.530Z,12.84
2023-04-22T04:58:44.585Z,12.94
2023-04-22T05:01:22.557Z,13.02
2023-04-22T05:03:56.727Z,13.06
2023-04-22T05:06:37.388Z,13.14
2023-04-22T05:09:08.478Z,13.22
2023-04-22T05:11:42.674Z,13.31
2023-04-22T05:14:24.014Z,13.43
2023-04-22T05:17:01.655Z,13.54
2023-04-22T05:19:50.352Z,13.63
2023-04-22T05:22:46.925Z,13.78
2023-04-22T05:25:47.940Z,13.92
2023-04-22T05:28:16.392Z,14.00
2023-04-22T05:30:56.361Z,14.10
2023-04-22T05:33:42.595Z,14.18
2023-04-22T05:37:13.815Z,14.26
2023-04-22T05:39:47.141Z,14.33
2023-04-22T05:42:18.184Z,14.35
2023-04-22T05:44:46.755Z,14.33
2023-04-22T05:47:20.355Z,14.38
2023-04-22T05:49:55.282Z,14.41
2023-04-22T05:52:52.561Z,14.47
2023-04-22T05:55:23.262Z,14.58
2023-04-22T06:47:35.776Z,16.59
2023-04-22T06:54:43.814Z,16.88
2023-04-22T07:10:27.441Z,17.77
2023-04-22T07:13:29.464Z,17.95
2023-04-22T07:31:28.703Z,18.54
2023-04-22T07:34:00.626Z,18.63
2023-04-22T07:36:35.354Z,18.73
2023-04-22T07:39:04.605Z,18.83
2023-04-22T07:44:42.540Z,18.87
2023-04-22T07:47:11.927Z,18.87
2023-04-22T07:49:41.324Z,18.88
2023-04-22T07:52:30.186Z,18.94
2023-04-22T07:57:48.154Z,18.99
2023-04-22T08:00:18.349Z,19.02
2023-04-22T08:03:10.758Z,19.06
2023-04-22T08:05:49.961Z,19.11
2023-04-22T10:38:10.199Z,20.27
2023-04-22T10:40:58.784Z,21.26
2023-04-22T10:43:52.031Z,21.43
2023-04-22T10:46:34.337Z,21.53
2023-04-22T10:49:23.654Z,21.79
2023-04-22T10:52:34.040Z,21.88
2023-04-22T10:55:02.982Z,21.72
2023-04-22T11:29:17.235Z,21.73
2023-04-22T11:33:02.537Z,21.73
2023-04-22T11:40:29.860Z,21.59
2023-04-22T11:43:04.594Z,21.50
2023-04-22T11:45:35.012Z,21.41
2023-04-22T11:48:27.029Z,21.26
2023-04-22T11:51:14.022Z,21.16
2023-04-22T11:53:49.911Z,21.10
2023-04-22T12:24:14.127Z,21.68
2023-04-22T12:26:31.771Z,21.86
2023-04-22T12:39:52.122Z,22.41
2023-04-22T12:42:39.109Z,22.48
2023-04-22T12:49:14.591Z,22.61
2023-04-22T12:51:41.407Z,22.63
2023-04-22T13:37:47.280Z,22.20
2023-04-22T13:40:15.237Z,22.31
2023-04-22T13:42:44.812Z,22.50
2023-04-22T13:45:12.344Z,22.71
2023-04-22T13:47:42.950Z,22.77
2023-04-22T13:50:14.986Z,22.65
2023-04-22T13:52:49.392Z,22.58
2023-04-22T13:55:20.777Z,22.57
2023-04-22T13:57:53.046Z,22.53
2023-04-22T14:00:20.956Z,22.47
2023-04-22T14:02:52.588Z,22.40
2023-04-22T14:05:24.580Z,22.29
2023-04-22T14:11:11.447Z,22.21
2023-04-22T14:13:44.858Z,22.33
2023-04-22T14:16:12.272Z,22.54
2023-04-22T14:18:39.922Z,22.71
2023-04-22T14:21:11.758Z,22.96
2023-04-22T14:23:39.626Z,23.28
2023-04-22T14:26:09.878Z,23.63
2023-04-22T14:28:38.126Z,24.19
2023-04-22T14:31:08.221Z,24.89
2023-04-22T14:33:36.451Z,25.59
2023-04-22T14:36:04.281Z,26.14
2023-04-22T14:38:33.383Z,26.72
2023-04-22T14:41:07.285Z,27.08
2023-04-22T14:43:34.586Z,27.10
2023-04-22T14:46:01.695Z,27.06
2023-04-22T14:48:31.892Z,27.10
2023-04-22T14:50:59.696Z,27.14
2023-04-22T14:53:27.952Z,27.20
2023-04-22T14:55:56.212Z,27.30
2023-04-22T14:58:23.883Z,27.50
2023-04-22T15:00:54.929Z,27.75
2023-04-22T15:03:22.573Z,28.03
2023-04-22T15:05:49.684Z,28.36
2023-04-22T15:08:17.687Z,28.51
2023-04-22T15:10:45.592Z,28.56
2023-04-22T15:13:15.456Z,28.69
2023-04-22T15:15:42.378Z,28.90
2023-04-22T15:18:10.059Z,28.81
2023-04-22T15:20:37.013Z,28.25
2023-04-22T15:23:03.950Z,27.90
2023-04-22T15:25:31.409Z,28.07
2023-04-22T15:27:59.476Z,28.31
2023-04-22T15:30:26.907Z,28.66
2023-04-22T15:32:55.041Z,28.82
2023-04-22T15:35:23.276Z,28.82
2023-04-22T15:37:50.394Z,28.64
2023-04-22T15:40:17.792Z,28.59
2023-04-22T15:42:45.018Z,28.69
2023-04-22T15:45:11.853Z,28.62
2023-04-22T15:47:41.283Z,28.42
2023-04-22T15:50:10.321Z,28.46
2023-04-22T15:52:38.028Z,28.58
2023-04-22T15:55:06.103Z,28.71
2023-04-22T15:57:34.184Z,28.83
2023-04-22T16:00:11.057Z,29.01
2023-04-22T16:02:44.455Z,29.00
2023-04-22T16:05:12.259Z,29.04
2023-04-22T16:07:40.406Z,28.83
2023-04-22T16:10:08.918Z,28.42
2023-04-22T16:12:36.173Z,28.08
2023-04-22T16:15:03.754Z,27.87
2023-04-22T16:17:31.633Z,27.66
2023-04-22T16:19:58.858Z,27.27
2023-04-22T16:22:26.295Z,26.74
2023-04-22T16:24:53.325Z,26.16
2023-04-22T16:27:20.484Z,25.83
2023-04-22T16:29:47.903Z,25.80
2023-04-22T16:32:15.137Z,25.85
2023-04-22T16:34:43.162Z,25.92
2023-04-22T16:37:10.137Z,26.03
2023-04-22T16:39:38.532Z,26.00
2023-04-22T16:42:06.189Z,25.79
2023-04-22T16:44:33.348Z,25.44
2023-04-22T16:47:00.232Z,24.95
2023-04-22T16:49:27.193Z,24.37
2023-04-22T16:51:54.009Z,23.84
2023-04-22T16:54:21.634Z,23.40
2023-04-22T16:56:48.502Z,23.06
2023-04-22T16:59:15.617Z,22.74
2023-04-22T17:01:42.809Z,22.41
2023-04-22T17:04:11.014Z,22.11
2023-04-22T17:06:39.945Z,21.88
2023-04-22T17:09:09.211Z,21.66
2023-04-22T17:11:36.192Z,21.45
2023-04-22T17:14:06.039Z,21.26
2023-04-22T17:16:33.198Z,21.08
2023-04-22T17:19:00.193Z,20.92
2023-04-22T17:21:27.639Z,20.75
2023-04-22T17:24:01.924Z,20.54
2023-04-22T17:26:29.283Z,20.40
2023-04-22T17:28:56.258Z,20.22
2023-04-22T17:31:25.028Z,20.03
2023-04-22T17:33:51.899Z,19.76
2023-04-22T17:36:19.980Z,19.56
2023-04-22T17:38:47.173Z,19.25
2023-04-22T17:41:14.769Z,18.98
2023-04-22T17:43:41.831Z,18.80
2023-04-22T17:46:09.184Z,18.67
2023-04-22T17:48:37.126Z,18.56
2023-04-22T17:51:06.141Z,18.47
2023-04-22T17:53:35.406Z,18.39
2023-04-22T17:56:02.602Z,18.39
2023-04-22T17:58:29.846Z,18.27
2023-04-22T18:00:58.416Z,18.19
2023-04-22T18:03:26.450Z,18.13
2023-04-22T18:05:53.508Z,18.08
2023-04-22T18:08:20.418Z,18.05
2023-04-22T18:10:47.272Z,17.99
2023-04-22T18:13:14.456Z,17.94
2023-04-22T18:15:41.505Z,17.86
2023-04-22T18:18:08.309Z,17.78
2023-04-22T18:20:35.138Z,17.69
2023-04-22T18:23:03.200Z,17.60
2023-04-22T18:25:33.195Z,17.52
2023-04-22T18:28:00.209Z,17.44
2023-04-22T18:30:29.848Z,17.37
2023-04-22T18:32:58.160Z,17.29
2023-04-22T18:35:25.928Z,17.23
2023-04-22T18:37:52.773Z,17.17
2023-04-22T18:40:20.675Z,17.11
2023-04-22T18:42:47.450Z,17.06
2023-04-22T18:45:16.050Z,17.01
2023-04-22T18:47:45.068Z,16.95
2023-04-22T18:50:12.566Z,16.89
2023-04-22T18:52:39.648Z,16.84
2023-04-22T18:55:06.888Z,16.80
2023-04-22T18:57:34.185Z,16.76
2023-04-22T19:00:02.058Z,16.72
2023-04-22T19:02:29.813Z,16.68
2023-04-22T19:04:57.277Z,16.63
2023-04-22T19:07:24.861Z,16.59
2023-04-22T19:10:11.405Z,16.54
2023-04-22T19:12:40.076Z,16.49
2023-04-22T19:15:07.948Z,16.46
2023-04-22T19:17:38.790Z,16.42
2023-04-22T19:20:09.504Z,16.35
2023-04-22T19:22:44.400Z,16.25
2023-04-22T19:25:15.489Z,16.25
2023-04-22T19:27:43.283Z,16.21
2023-04-22T19:30:17.186Z,16.17
2023-04-22T19:32:53.726Z,16.13
2023-04-22T19:35:27.991Z,16.08
2023-04-22T19:37:59.430Z,16.02
2023-04-22T19:40:28.290Z,15.87
2023-04-22T19:42:57.898Z,15.74
2023-04-22T19:45:29.501Z,15.73
2023-04-22T19:50:54.982Z,15.67
2023-04-22T19:53:23.017Z,15.67
2023-04-22T19:55:54.181Z,15.65
2023-04-22T19:58:25.959Z,15.62
2023-04-22T20:01:00.351Z,15.67
2023-04-22T20:03:33.953Z,15.68
2023-04-22T20:06:01.063Z,15.68
2023-04-22T20:08:33.616Z,15.63
2023-04-22T20:11:01.473Z,15.67
2023-04-22T20:13:30.100Z,15.57
2023-04-22T20:15:59.068Z,15.55
2023-04-22T20:18:29.958Z,15.58
2023-04-22T20:20:58.074Z,15.56
2023-04-22T20:23:28.664Z,15.60
2023-04-22T20:25:55.988Z,15.66
2023-04-22T20:29:00.639Z,15.58
2023-04-22T20:31:29.143Z,15.54
2023-04-22T20:33:59.234Z,15.54
2023-04-22T20:36:36.458Z,15.54
2023-04-22T20:39:05.531Z,15.57
2023-04-22T20:41:37.810Z,15.50
2023-04-22T20:44:05.618Z,15.47
2023-04-22T20:46:35.279Z,15.45
2023-04-22T20:49:07.855Z,15.50
2023-04-22T20:51:36.234Z,15.40
2023-04-22T20:54:09.792Z,15.37
2023-04-22T20:56:49.179Z,15.35
2023-04-22T20:59:16.171Z,15.36
2023-04-22T21:01:44.529Z,15.35
2023-04-22T21:04:11.693Z,15.33
2023-04-22T21:06:40.132Z,15.26
2023-04-22T21:09:07.794Z,15.25
2023-04-22T21:11:35.134Z,15.21
2023-04-22T21:14:05.222Z,15.30
2023-04-22T21:16:47.120Z,15.29
2023-04-22T21:19:14.509Z,15.19
2023-04-22T21:21:41.320Z,15.22
2023-04-22T21:24:09.100Z,15.24
2023-04-22T21:26:37.080Z,15.23
2023-04-22T21:29:04.291Z,15.13
2023-04-22T21:31:33.646Z,15.07
2023-04-22T21:34:04.081Z,15.07
2023-04-22T21:36:32.193Z,15.05
2023-04-22T21:38:59.523Z,15.04
2023-04-22T21:41:26.429Z,15.04
2023-04-22T21:43:55.073Z,15.04
2023-04-22T21:46:23.854Z,15.08
2023-04-22T21:48:50.712Z,15.12
2023-04-22T21:51:17.493Z,15.11
2023-04-22T21:53:44.404Z,15.10
2023-04-22T21:56:11.352Z,15.09
2023-04-22T21:58:38.955Z,15.07
2023-04-22T22:01:05.783Z,15.04
2023-04-22T22:03:33.020Z,15.03
2023-04-22T22:06:00.055Z,15.00
2023-04-22T22:08:27.035Z,14.92
2023-04-22T22:10:53.833Z,14.77
2023-04-22T22:13:20.649Z,14.75
2023-04-22T22:15:47.393Z,14.78
2023-04-22T22:18:14.173Z,14.89
2023-04-22T22:20:41.460Z,14.92
2023-04-22T22:23:08.204Z,14.93
2023-04-22T22:25:34.932Z,14.94
2023-04-22T22:28:03.914Z,14.94
2023-04-22T22:30:30.850Z,14.93
2023-04-22T22:32:57.830Z,14.91
2023-04-22T22:35:24.533Z,14.89
2023-04-22T22:37:51.507Z,14.87
2023-04-22T22:40:18.408Z,14.85
2023-04-22T22:42:45.383Z,14.75
2023-04-22T22:45:12.248Z,14.61
2023-04-22T22:47:39.109Z,14.56
2023-04-22T22:50:24.160Z,14.59
2023-04-22T22:52:50.908Z,14.58
2023-04-22T22:55:17.644Z,14.59
2023-04-22T22:57:47.029Z,14.60
2023-04-22T23:00:14.215Z,14.60
2023-04-22T23:02:43.842Z,14.60
2023-04-22T23:05:10.968Z,14.61
2023-04-22T23:07:38.097Z,14.62
2023-04-22T23:10:05.555Z,14.58
2023-04-22T23:12:34.183Z,14.56
2023-04-22T23:15:01.078Z,14.54
2023-04-22T23:17:27.963Z,14.54
2023-04-22T23:19:55.351Z,14.54
2023-04-22T23:22:22.848Z,14.54
2023-04-22T23:24:49.977Z,14.55
2023-04-22T23:27:16.973Z,14.55
2023-04-22T23:29:44.172Z,14.54
2023-04-22T23:32:13.269Z,14.54
2023-04-22T23:34:40.480Z,14.53
2023-04-22T23:37:08.001Z,14.53
2023-04-22T23:39:35.517Z,14.53
2023-04-22T23:42:02.469Z,14.53
2023-04-22T23:44:29.871Z,14.53
2023-04-22T23:46:56.674Z,14.52
2023-04-22T23:49:23.531Z,14.50
2023-04-22T23:51:51.931Z,14.47
2023-04-22T23:54:21.707Z,14.42
2023-04-22T23:56:48.878Z,14.39
2023-04-22T23:59:16.031Z,14.41
